Aegean Orion — SVA2487 — position and weather

sailwx.info

Track history (hours):
 
Tides and Currents Weather Stations Pressure Air Temp Water Temp Dewpoint Dewpoint Depression Visibility Wind Speed Wind Dir Waves Ship Positions

Aegean Orion

Last reported at 2018-Jan-23 10:00 UTC. Time now 2018-Jan-23 10:19 UTC.
Position N 37°56' E 023°38'.

; draft 2.4 m.

Type: Ship. MMSI: 239550200.

Date/timePositionNaut miles runAvg speedWind from/ knotsBaromVisibWave heightAir tempDewpointWater temp
2018-Jan-23 10:00N 37°56' E 023°38'0 0.0
2018-Jan-23 09:30N 37°56' E 023°37'0 0.0
2018-Jan-23 09:00N 37°56' E 023°37'0 0.0
2018-Jan-23 08:30N 37°56' E 023°37'2 4.2
2018-Jan-23 08:00N 37°57' E 023°35'3 6.6
2018-Jan-23 07:31N 37°60' E 023°33'3 5.1
2018-Jan-23 07:00N 38°02' E 023°32'0 0.0
2018-Jan-23 06:30N 38°02' E 023°32'0 0.0
2018-Jan-23 06:00N 38°02' E 023°32'0 0.0
2018-Jan-23 05:30N 38°02' E 023°32'0 0.0
2018-Jan-23 05:00N 38°02' E 023°32'0 0.0
2018-Jan-23 04:30N 38°02' E 023°32'0 0.0
2018-Jan-23 04:00N 38°02' E 023°32'0 0.0
2018-Jan-23 03:30N 38°02' E 023°32'0 0.0
2018-Jan-23 03:00N 38°02' E 023°32'0 0.0
2018-Jan-23 02:30N 38°02' E 023°32'0 0.0
2018-Jan-23 02:00N 38°02' E 023°32'0 0.0
2018-Jan-23 01:30N 38°02' E 023°32'0 0.0
2018-Jan-23 01:00N 38°02' E 023°32'0 0.0
2018-Jan-23 00:30N 38°02' E 023°32'0 0.0
2018-Jan-23 00:00N 38°02' E 023°32'0 0.0
2018-Jan-22 23:30N 38°02' E 023°32'0 0.0
2018-Jan-22 23:00N 38°02' E 023°32'0 0.0
2018-Jan-22 22:30N 38°02' E 023°32'0 0.0
2018-Jan-22 22:00N 38°02' E 023°32'0 0.0
2018-Jan-22 21:30N 38°02' E 023°32'0 0.0
2018-Jan-22 21:00N 38°02' E 023°32'0 0.0
2018-Jan-22 20:30N 38°02' E 023°32'0 0.0
2018-Jan-22 20:00N 38°02' E 023°32'0 0.0
2018-Jan-22 19:30N 38°02' E 023°32'0 0.0
2018-Jan-22 19:00N 38°02' E 023°32'0 0.0
2018-Jan-22 18:30N 38°02' E 023°32'0 0.0
2018-Jan-22 18:00N 38°02' E 023°32'0 0.0
2018-Jan-22 17:30N 38°02' E 023°32'0 0.0
2018-Jan-22 17:00N 38°02' E 023°32'0 0.0
2018-Jan-22 16:30N 38°02' E 023°32'0 0.1
2018-Jan-22 16:00N 38°02' E 023°32'3 6.4
2018-Jan-22 15:30N 37°59' E 023°33'3 5.9
2018-Jan-22 15:00N 37°57' E 023°35'2 4.9
2018-Jan-22 14:30N 37°57' E 023°38'0 0.0
2018-Jan-22 14:00N 37°57' E 023°38'0 0.1
2018-Jan-22 13:30N 37°57' E 023°38'2 3.5
2018-Jan-22 13:00N 37°57' E 023°36'2 3.0
2018-Jan-22 12:30N 37°57' E 023°34'0 0.0
2018-Jan-22 12:00N 37°57' E 023°34'0 0.0
2018-Jan-22 11:30N 37°57' E 023°34'0 0.1
2018-Jan-22 11:00N 37°57' E 023°34'3 5.2
2018-Jan-22 10:30N 37°60' E 023°33'3 5.6
2018-Jan-22 10:00N 38°02' E 023°31'0 0.5
2018-Jan-22 09:30N 38°02' E 023°31'0 0.0
2018-Jan-22 09:00N 38°02' E 023°31'0 0.0
2018-Jan-22 08:30N 38°02' E 023°31'0 0.0
2018-Jan-22 08:00N 38°02' E 023°31'0 0.0
2018-Jan-22 07:30N 38°02' E 023°31'0 0.0
2018-Jan-22 07:00N 38°02' E 023°31'0 0.0
2018-Jan-22 06:30N 38°02' E 023°31'0 0.0
2018-Jan-22 06:00N 38°02' E 023°31'0 0.8
2018-Jan-22 05:30N 38°02' E 023°31'1 1.3
2018-Jan-22 05:00N 38°02' E 023°32'0 0.0
2018-Jan-22 04:30N 38°02' E 023°32'0 0.0
2018-Jan-22 04:00N 38°02' E 023°32'0 0.0
2018-Jan-22 03:30N 38°02' E 023°32'0 0.0
2018-Jan-22 03:00N 38°02' E 023°32'0 0.0
2018-Jan-22 02:30N 38°02' E 023°32'0 0.0
2018-Jan-22 02:00N 38°02' E 023°32'0 0.0
2018-Jan-22 01:30N 38°02' E 023°32'0 0.0
2018-Jan-22 01:00N 38°02' E 023°32'0 0.0
2018-Jan-22 00:30N 38°02' E 023°32'0 0.0
2018-Jan-22 00:00N 38°02' E 023°32'0 0.0
2018-Jan-21 23:30N 38°02' E 023°32'0 0.0
2018-Jan-21 23:00N 38°02' E 023°32'0 0.0
2018-Jan-21 22:30N 38°02' E 023°32'0 0.0
2018-Jan-21 22:00N 38°02' E 023°32'0 0.0
2018-Jan-21 21:30N 38°02' E 023°32'0 0.0
2018-Jan-21 21:00N 38°02' E 023°32'0 0.0
2018-Jan-21 20:30N 38°02' E 023°32'0 0.0
2018-Jan-21 20:00N 38°02' E 023°32'0 0.0
2018-Jan-21 19:30N 38°02' E 023°32'0 0.0
2018-Jan-21 19:00N 38°02' E 023°32'0 0.0
2018-Jan-21 18:28N 38°02' E 023°32'0 0.0
2018-Jan-21 18:00N 38°02' E 023°32'0 0.0
2018-Jan-21 17:30N 38°02' E 023°32'0 0.0
2018-Jan-21 17:00N 38°02' E 023°32'0 0.0
2018-Jan-21 16:30N 38°02' E 023°32'0 0.0
2018-Jan-21 15:59N 38°02' E 023°32'0 0.0
2018-Jan-21 15:30N 38°02' E 023°32'0 0.0
2018-Jan-21 15:00N 38°02' E 023°32'0 0.0
2018-Jan-21 14:30N 38°02' E 023°32'0 0.0
2018-Jan-21 14:00N 38°02' E 023°32'0 0.0
2018-Jan-21 13:29N 38°02' E 023°32'0 0.0
2018-Jan-21 13:00N 38°02' E 023°32'0 0.0
2018-Jan-21 12:30N 38°02' E 023°32'0 0.0
2018-Jan-21 12:00N 38°02' E 023°32'0 0.0
2018-Jan-21 11:30N 38°02' E 023°32'0 0.0
2018-Jan-21 10:56N 38°02' E 023°32'0 0.0
2018-Jan-21 10:30N 38°02' E 023°32'0 0.0
2018-Jan-21 10:00N 38°02' E 023°32'0 0.0
2018-Jan-21 09:29N 38°02' E 023°32'0 0.0
2018-Jan-21 09:00N 38°02' E 023°32'0 0.0
2018-Jan-21 08:30N 38°02' E 023°32'0 0.0
2018-Jan-21 08:00N 38°02' E 023°32'0 0.0
2018-Jan-21 07:30N 38°02' E 023°32'0 0.0
2018-Jan-21 07:00N 38°02' E 023°32'0 0.0
2018-Jan-21 06:30N 38°02' E 023°32'0 0.0
2018-Jan-21 06:00N 38°02' E 023°32'0 0.0
2018-Jan-21 05:30N 38°02' E 023°32'0 0.0
2018-Jan-21 05:00N 38°02' E 023°32'0 0.0
2018-Jan-21 04:30N 38°02' E 023°32'0 0.0
2018-Jan-21 04:00N 38°02' E 023°32'0 0.0
2018-Jan-21 03:30N 38°02' E 023°32'0 0.0
2018-Jan-21 02:58N 38°02' E 023°32'0 0.0
2018-Jan-21 02:30N 38°02' E 023°32'0 0.0
2018-Jan-21 02:00N 38°02' E 023°32'0 0.0
2018-Jan-21 01:30N 38°02' E 023°32'0 0.0
2018-Jan-21 01:00N 38°02' E 023°32'0 0.0
2018-Jan-21 00:30N 38°02' E 023°32'0 0.0
2018-Jan-21 00:00N 38°02' E 023°32'0 0.0
2018-Jan-20 23:30N 38°02' E 023°32'0 0.0
2018-Jan-20 23:00N 38°02' E 023°32'0 0.0
2018-Jan-20 22:30N 38°02' E 023°32'0 0.0
2018-Jan-20 22:00N 38°02' E 023°32'0 0.0
2018-Jan-20 21:28N 38°02' E 023°32'0 0.0
2018-Jan-20 21:00N 38°02' E 023°32'0 0.0
2018-Jan-20 20:30N 38°02' E 023°32'0 0.0
2018-Jan-20 20:00N 38°02' E 023°32'0 0.0
2018-Jan-20 19:30N 38°02' E 023°32'0 0.0
2018-Jan-20 19:00N 38°02' E 023°32'0 0.0
2018-Jan-20 18:30N 38°02' E 023°32'0 0.0
2018-Jan-20 18:00N 38°02' E 023°32'0 0.0
2018-Jan-20 17:30N 38°02' E 023°32'0 0.0
2018-Jan-20 16:56N 38°02' E 023°32'0 0.0
2018-Jan-20 16:30N 38°02' E 023°32'0 0.0
2018-Jan-20 16:00N 38°02' E 023°32'0 0.0
2018-Jan-20 15:30N 38°02' E 023°32'0 0.0
2018-Jan-20 15:00N 38°02' E 023°32'0 0.0
2018-Jan-20 14:30N 38°02' E 023°32'0 0.0
2018-Jan-20 14:01N 38°02' E 023°32'0 0.0
2018-Jan-20 13:30N 38°02' E 023°32'0 0.0
2018-Jan-20 13:00N 38°02' E 023°32'0 0.0
2018-Jan-20 12:30N 38°02' E 023°32'0 0.0
2018-Jan-20 12:00N 38°02' E 023°32'0 0.0
2018-Jan-20 11:30N 38°02' E 023°32'0 0.0
2018-Jan-20 11:00N 38°02' E 023°32'0 0.0
2018-Jan-20 10:30N 38°02' E 023°32'0 0.0
2018-Jan-20 10:00N 38°02' E 023°32'0 0.0
2018-Jan-20 09:30N 38°02' E 023°32'0 0.0
2018-Jan-20 09:01N 38°02' E 023°32'0 0.0
2018-Jan-20 08:30N 38°02' E 023°32'0 0.0
2018-Jan-20 08:00N 38°02' E 023°32'0 0.0
2018-Jan-20 07:30N 38°02' E 023°32'0 0.0
2018-Jan-20 07:00N 38°02' E 023°32'0 0.0
2018-Jan-20 06:31N 38°02' E 023°32'1 1.0
2018-Jan-20 06:00N 38°02' E 023°32'4 7.9
2018-Jan-20 05:30N 37°58' E 023°33'1 2.8
2018-Jan-20 05:00N 37°57' E 023°34'0 0.0
2018-Jan-20 04:30N 37°57' E 023°34'0 0.1
2018-Jan-20 04:00N 37°57' E 023°34'0 0.0
2018-Jan-20 03:30N 37°57' E 023°34'0 0.0
2018-Jan-20 03:00N 37°57' E 023°34'0 0.0
2018-Jan-20 02:30N 37°57' E 023°34'0 0.0
2018-Jan-20 02:00N 37°57' E 023°34'0 0.1
2018-Jan-20 01:30N 37°57' E 023°35'0 0.0
2018-Jan-20 01:00N 37°57' E 023°35'2 5.0
2018-Jan-20 00:30N 37°56' E 023°37'0 0.1
2018-Jan-20 00:00N 37°56' E 023°37'0 0.0
2018-Jan-19 23:30N 37°56' E 023°37'0 0.0
2018-Jan-19 23:00N 37°56' E 023°37'0 0.0
2018-Jan-19 22:30N 37°56' E 023°37'0 0.0
2018-Jan-19 22:00N 37°56' E 023°37'0 0.3
2018-Jan-19 21:30N 37°56' E 023°37'1 2.2
2018-Jan-19 21:00N 37°57' E 023°36'2 3.0
2018-Jan-19 20:30N 37°57' E 023°34'0 0.0
2018-Jan-19 20:00N 37°57' E 023°34'0 0.1
2018-Jan-19 19:30N 37°57' E 023°34'0 0.0
2018-Jan-19 19:00N 37°57' E 023°34'0 0.0
2018-Jan-19 18:30N 37°57' E 023°34'0 0.0
2018-Jan-19 18:00N 37°57' E 023°34'0 0.0
2018-Jan-19 17:30N 37°57' E 023°34'0 0.0
2018-Jan-19 17:00N 37°57' E 023°34'0 0.0
2018-Jan-19 16:31N 37°57' E 023°34'0 0.1
2018-Jan-19 16:00N 37°57' E 023°34'0 0.0
2018-Jan-19 15:30N 37°57' E 023°34'2 3.5
2018-Jan-19 15:00N 37°57' E 023°36'2 3.4
2018-Jan-19 14:30N 37°57' E 023°38'0 0.0
2018-Jan-19 14:00N 37°57' E 023°38'0 0.0
2018-Jan-19 13:29N 37°57' E 023°38'1 2.8
2018-Jan-19 13:00N 37°56' E 023°37'1 2.9
2018-Jan-19 12:30N 37°57' E 023°35'3 5.7
2018-Jan-19 12:00N 37°59' E 023°33'3 5.3
2018-Jan-19 11:30N 38°02' E 023°32'1 1.2
2018-Jan-19 11:00N 38°02' E 023°32'0 0.0
2018-Jan-19 10:30N 38°02' E 023°32'0 0.0
2018-Jan-19 10:00N 38°02' E 023°32'0 0.0
2018-Jan-19 09:30N 38°02' E 023°32'0 0.0
2018-Jan-19 09:00N 38°02' E 023°32'0 0.0
2018-Jan-19 08:30N 38°02' E 023°32'0 0.0
2018-Jan-19 08:00N 38°02' E 023°32'0 0.0
2018-Jan-19 07:30N 38°02' E 023°32'0 0.0
2018-Jan-19 07:00N 38°02' E 023°32'0 0.0
2018-Jan-19 06:30N 38°02' E 023°32'0 0.0
2018-Jan-19 06:00N 38°02' E 023°32'0 0.0
2018-Jan-19 05:30N 38°02' E 023°32'0 0.0
2018-Jan-19 05:00N 38°02' E 023°32'0 0.0
2018-Jan-19 04:30N 38°02' E 023°32'0 0.0
2018-Jan-19 04:00N 38°02' E 023°32'0 0.0
2018-Jan-19 03:30N 38°02' E 023°32'0 0.0
2018-Jan-19 03:00N 38°02' E 023°32'0 0.0
2018-Jan-19 02:30N 38°02' E 023°32'0 0.0
2018-Jan-19 02:00N 38°02' E 023°32'0 0.0
2018-Jan-19 01:31N 38°02' E 023°32'0 0.0
2018-Jan-19 01:00N 38°02' E 023°32'0 0.0
2018-Jan-19 00:30N 38°02' E 023°32'0 0.0
2018-Jan-19 00:00N 38°02' E 023°32'0 0.0
2018-Jan-18 23:30N 38°02' E 023°32'0 0.0
2018-Jan-18 23:00N 38°02' E 023°32'0 0.0
2018-Jan-18 22:31N 38°02' E 023°32'0 0.0
2018-Jan-18 22:00N 38°02' E 023°32'0 0.0
2018-Jan-18 21:30N 38°02' E 023°32'0 0.0
2018-Jan-18 21:00N 38°02' E 023°32'0 0.0
2018-Jan-18 20:30N 38°02' E 023°32'0 0.7
2018-Jan-18 20:00N 38°02' E 023°32'1 1.5
2018-Jan-18 19:30N 38°02' E 023°31'0 0.0
2018-Jan-18 19:00N 38°02' E 023°31'0 0.0
2018-Jan-18 18:30N 38°02' E 023°31'0 0.0
2018-Jan-18 18:00N 38°02' E 023°31'0 0.0
2018-Jan-18 17:30N 38°02' E 023°31'0 0.0
2018-Jan-18 17:00N 38°02' E 023°31'0 0.0
2018-Jan-18 16:30N 38°02' E 023°31'0 0.0
2018-Jan-18 16:00N 38°02' E 023°31'0 0.0
2018-Jan-18 15:30N 38°02' E 023°31'1 1.9
2018-Jan-18 15:00N 38°02' E 023°32'0 0.1
2018-Jan-18 14:30N 38°02' E 023°32'0 0.0
2018-Jan-18 14:01N 38°02' E 023°32'0 0.0
2018-Jan-18 13:31N 38°02' E 023°32'0 0.9
2018-Jan-18 13:00N 38°02' E 023°31'2 3.2
2018-Jan-18 12:30N 38°00' E 023°32'3 6.2
2018-Jan-18 12:00N 37°57' E 023°33'3 6.8
2018-Jan-18 11:31N 37°56' E 023°37'0 0.3
2018-Jan-18 11:00N 37°56' E 023°37'0 0.0
2018-Jan-18 10:30N 37°56' E 023°37'0 0.0
2018-Jan-18 10:00N 37°56' E 023°37'0 0.0
2018-Jan-18 09:30N 37°56' E 023°37'0 0.0
2018-Jan-18 09:01N 37°56' E 023°37'2 4.8
2018-Jan-18 08:30N 37°57' E 023°34'3 6.5
2018-Jan-18 08:00N 38°00' E 023°33'2 4.5
2018-Jan-18 07:30N 38°02' E 023°32'0 0.0
2018-Jan-18 07:00N 38°02' E 023°32'0 0.0
2018-Jan-18 06:28N 38°02' E 023°32'0 0.0
2018-Jan-18 06:00N 38°02' E 023°32'0 0.0
2018-Jan-18 05:30N 38°02' E 023°32'0 0.0
2018-Jan-18 05:00N 38°02' E 023°32'0 0.0
2018-Jan-18 04:30N 38°02' E 023°32'0 0.0
2018-Jan-18 04:00N 38°02' E 023°32'0 0.0
2018-Jan-18 03:30N 38°02' E 023°32'0 0.0
2018-Jan-18 03:00N 38°02' E 023°32'0 0.0
2018-Jan-18 02:30N 38°02' E 023°32'0 0.0
2018-Jan-18 02:00N 38°02' E 023°32'0 0.0
2018-Jan-18 01:30N 38°02' E 023°32'0 0.0
2018-Jan-18 01:00N 38°02' E 023°32'0 0.0
2018-Jan-18 00:00N 38°02' E 023°32'0 0.0
2018-Jan-17 23:57N 38°02' E 023°32'  
Track history (hours):
 
Tides and Currents Weather Stations Pressure Air Temp Water Temp Dewpoint Dewpoint Depression Visibility Wind Speed Wind Dir Waves Ship Positions

Aegean Orion

Last reported at 2018-Jan-23 10:00 UTC. Time now 2018-Jan-23 10:19 UTC.
Position N 37°56' E 023°38'.

; draft 2.4 m.

Type: Ship. MMSI: 239550200.

Date/timePositionNaut miles runAvg speedWind from/ knotsBaromVisibWave heightAir tempDewpointWater temp
2018-Jan-23 10:00N 37°56' E 023°38'0 0.0
2018-Jan-23 09:30N 37°56' E 023°37'0 0.0
2018-Jan-23 09:00N 37°56' E 023°37'0 0.0
2018-Jan-23 08:30N 37°56' E 023°37'2 4.2
2018-Jan-23 08:00N 37°57' E 023°35'3 6.6
2018-Jan-23 07:31N 37°60' E 023°33'3 5.1
2018-Jan-23 07:00N 38°02' E 023°32'0 0.0
2018-Jan-23 06:30N 38°02' E 023°32'0 0.0
2018-Jan-23 06:00N 38°02' E 023°32'0 0.0
2018-Jan-23 05:30N 38°02' E 023°32'0 0.0
2018-Jan-23 05:00N 38°02' E 023°32'0 0.0
2018-Jan-23 04:30N 38°02' E 023°32'0 0.0
2018-Jan-23 04:00N 38°02' E 023°32'0 0.0
2018-Jan-23 03:30N 38°02' E 023°32'0 0.0
2018-Jan-23 03:00N 38°02' E 023°32'0 0.0
2018-Jan-23 02:30N 38°02' E 023°32'0 0.0
2018-Jan-23 02:00N 38°02' E 023°32'0 0.0
2018-Jan-23 01:30N 38°02' E 023°32'0 0.0
2018-Jan-23 01:00N 38°02' E 023°32'0 0.0
2018-Jan-23 00:30N 38°02' E 023°32'0 0.0
2018-Jan-23 00:00N 38°02' E 023°32'0 0.0
2018-Jan-22 23:30N 38°02' E 023°32'0 0.0
2018-Jan-22 23:00N 38°02' E 023°32'0 0.0
2018-Jan-22 22:30N 38°02' E 023°32'0 0.0
2018-Jan-22 22:00N 38°02' E 023°32'0 0.0
2018-Jan-22 21:30N 38°02' E 023°32'0 0.0
2018-Jan-22 21:00N 38°02' E 023°32'0 0.0
2018-Jan-22 20:30N 38°02' E 023°32'0 0.0
2018-Jan-22 20:00N 38°02' E 023°32'0 0.0
2018-Jan-22 19:30N 38°02' E 023°32'0 0.0
2018-Jan-22 19:00N 38°02' E 023°32'0 0.0
2018-Jan-22 18:30N 38°02' E 023°32'0 0.0
2018-Jan-22 18:00N 38°02' E 023°32'0 0.0
2018-Jan-22 17:30N 38°02' E 023°32'0 0.0
2018-Jan-22 17:00N 38°02' E 023°32'0 0.0
2018-Jan-22 16:30N 38°02' E 023°32'0 0.1
2018-Jan-22 16:00N 38°02' E 023°32'3 6.4
2018-Jan-22 15:30N 37°59' E 023°33'3 5.9
2018-Jan-22 15:00N 37°57' E 023°35'2 4.9
2018-Jan-22 14:30N 37°57' E 023°38'0 0.0
2018-Jan-22 14:00N 37°57' E 023°38'0 0.1
2018-Jan-22 13:30N 37°57' E 023°38'2 3.5
2018-Jan-22 13:00N 37°57' E 023°36'2 3.0
2018-Jan-22 12:30N 37°57' E 023°34'0 0.0
2018-Jan-22 12:00N 37°57' E 023°34'0 0.0
2018-Jan-22 11:30N 37°57' E 023°34'0 0.1
2018-Jan-22 11:00N 37°57' E 023°34'3 5.2
2018-Jan-22 10:30N 37°60' E 023°33'3 5.6
2018-Jan-22 10:00N 38°02' E 023°31'0 0.5
2018-Jan-22 09:30N 38°02' E 023°31'0 0.0
2018-Jan-22 09:00N 38°02' E 023°31'0 0.0
2018-Jan-22 08:30N 38°02' E 023°31'0 0.0
2018-Jan-22 08:00N 38°02' E 023°31'0 0.0
2018-Jan-22 07:30N 38°02' E 023°31'0 0.0
2018-Jan-22 07:00N 38°02' E 023°31'0 0.0
2018-Jan-22 06:30N 38°02' E 023°31'0 0.0
2018-Jan-22 06:00N 38°02' E 023°31'0 0.8
2018-Jan-22 05:30N 38°02' E 023°31'1 1.3
2018-Jan-22 05:00N 38°02' E 023°32'0 0.0
2018-Jan-22 04:30N 38°02' E 023°32'0 0.0
2018-Jan-22 04:00N 38°02' E 023°32'0 0.0
2018-Jan-22 03:30N 38°02' E 023°32'0 0.0
2018-Jan-22 03:00N 38°02' E 023°32'0 0.0
2018-Jan-22 02:30N 38°02' E 023°32'0 0.0
2018-Jan-22 02:00N 38°02' E 023°32'0 0.0
2018-Jan-22 01:30N 38°02' E 023°32'0 0.0
2018-Jan-22 01:00N 38°02' E 023°32'0 0.0
2018-Jan-22 00:30N 38°02' E 023°32'0 0.0
2018-Jan-22 00:00N 38°02' E 023°32'0 0.0
2018-Jan-21 23:30N 38°02' E 023°32'0 0.0
2018-Jan-21 23:00N 38°02' E 023°32'0 0.0
2018-Jan-21 22:30N 38°02' E 023°32'0 0.0
2018-Jan-21 22:00N 38°02' E 023°32'0 0.0
2018-Jan-21 21:30N 38°02' E 023°32'0 0.0
2018-Jan-21 21:00N 38°02' E 023°32'0 0.0
2018-Jan-21 20:30N 38°02' E 023°32'0 0.0
2018-Jan-21 20:00N 38°02' E 023°32'0 0.0
2018-Jan-21 19:30N 38°02' E 023°32'0 0.0
2018-Jan-21 19:00N 38°02' E 023°32'0 0.0
2018-Jan-21 18:28N 38°02' E 023°32'0 0.0
2018-Jan-21 18:00N 38°02' E 023°32'0 0.0
2018-Jan-21 17:30N 38°02' E 023°32'0 0.0
2018-Jan-21 17:00N 38°02' E 023°32'0 0.0
2018-Jan-21 16:30N 38°02' E 023°32'0 0.0
2018-Jan-21 15:59N 38°02' E 023°32'0 0.0
2018-Jan-21 15:30N 38°02' E 023°32'0 0.0
2018-Jan-21 15:00N 38°02' E 023°32'0 0.0
2018-Jan-21 14:30N 38°02' E 023°32'0 0.0
2018-Jan-21 14:00N 38°02' E 023°32'0 0.0
2018-Jan-21 13:29N 38°02' E 023°32'0 0.0
2018-Jan-21 13:00N 38°02' E 023°32'0 0.0
2018-Jan-21 12:30N 38°02' E 023°32'0 0.0
2018-Jan-21 12:00N 38°02' E 023°32'0 0.0
2018-Jan-21 11:30N 38°02' E 023°32'0 0.0
2018-Jan-21 10:56N 38°02' E 023°32'0 0.0
2018-Jan-21 10:30N 38°02' E 023°32'0 0.0
2018-Jan-21 10:00N 38°02' E 023°32'0 0.0
2018-Jan-21 09:29N 38°02' E 023°32'0 0.0
2018-Jan-21 09:00N 38°02' E 023°32'0 0.0
2018-Jan-21 08:30N 38°02' E 023°32'0 0.0
2018-Jan-21 08:00N 38°02' E 023°32'0 0.0
2018-Jan-21 07:30N 38°02' E 023°32'0 0.0
2018-Jan-21 07:00N 38°02' E 023°32'0 0.0
2018-Jan-21 06:30N 38°02' E 023°32'0 0.0
2018-Jan-21 06:00N 38°02' E 023°32'0 0.0
2018-Jan-21 05:30N 38°02' E 023°32'0 0.0
2018-Jan-21 05:00N 38°02' E 023°32'0 0.0
2018-Jan-21 04:30N 38°02' E 023°32'0 0.0
2018-Jan-21 04:00N 38°02' E 023°32'0 0.0
2018-Jan-21 03:30N 38°02' E 023°32'0 0.0
2018-Jan-21 02:58N 38°02' E 023°32'0 0.0
2018-Jan-21 02:30N 38°02' E 023°32'0 0.0
2018-Jan-21 02:00N 38°02' E 023°32'0 0.0
2018-Jan-21 01:30N 38°02' E 023°32'0 0.0
2018-Jan-21 01:00N 38°02' E 023°32'0 0.0
2018-Jan-21 00:30N 38°02' E 023°32'0 0.0
2018-Jan-21 00:00N 38°02' E 023°32'0 0.0
2018-Jan-20 23:30N 38°02' E 023°32'0 0.0
2018-Jan-20 23:00N 38°02' E 023°32'0 0.0
2018-Jan-20 22:30N 38°02' E 023°32'0 0.0
2018-Jan-20 22:00N 38°02' E 023°32'0 0.0
2018-Jan-20 21:28N 38°02' E 023°32'0 0.0
2018-Jan-20 21:00N 38°02' E 023°32'0 0.0
2018-Jan-20 20:30N 38°02' E 023°32'0 0.0
2018-Jan-20 20:00N 38°02' E 023°32'0 0.0
2018-Jan-20 19:30N 38°02' E 023°32'0 0.0
2018-Jan-20 19:00N 38°02' E 023°32'0 0.0
2018-Jan-20 18:30N 38°02' E 023°32'0 0.0
2018-Jan-20 18:00N 38°02' E 023°32'0 0.0
2018-Jan-20 17:30N 38°02' E 023°32'0 0.0
2018-Jan-20 16:56N 38°02' E 023°32'0 0.0
2018-Jan-20 16:30N 38°02' E 023°32'0 0.0
2018-Jan-20 16:00N 38°02' E 023°32'0 0.0
2018-Jan-20 15:30N 38°02' E 023°32'0 0.0
2018-Jan-20 15:00N 38°02' E 023°32'0 0.0
2018-Jan-20 14:30N 38°02' E 023°32'0 0.0
2018-Jan-20 14:01N 38°02' E 023°32'0 0.0
2018-Jan-20 13:30N 38°02' E 023°32'0 0.0
2018-Jan-20 13:00N 38°02' E 023°32'0 0.0
2018-Jan-20 12:30N 38°02' E 023°32'0 0.0
2018-Jan-20 12:00N 38°02' E 023°32'0 0.0
2018-Jan-20 11:30N 38°02' E 023°32'0 0.0
2018-Jan-20 11:00N 38°02' E 023°32'0 0.0
2018-Jan-20 10:30N 38°02' E 023°32'0 0.0
2018-Jan-20 10:00N 38°02' E 023°32'0 0.0
2018-Jan-20 09:30N 38°02' E 023°32'0 0.0
2018-Jan-20 09:01N 38°02' E 023°32'0 0.0
2018-Jan-20 08:30N 38°02' E 023°32'0 0.0
2018-Jan-20 08:00N 38°02' E 023°32'0 0.0
2018-Jan-20 07:30N 38°02' E 023°32'0 0.0
2018-Jan-20 07:00N 38°02' E 023°32'0 0.0
2018-Jan-20 06:31N 38°02' E 023°32'1 1.0
2018-Jan-20 06:00N 38°02' E 023°32'4 7.9
2018-Jan-20 05:30N 37°58' E 023°33'1 2.8
2018-Jan-20 05:00N 37°57' E 023°34'0 0.0
2018-Jan-20 04:30N 37°57' E 023°34'0 0.1
2018-Jan-20 04:00N 37°57' E 023°34'0 0.0
2018-Jan-20 03:30N 37°57' E 023°34'0 0.0
2018-Jan-20 03:00N 37°57' E 023°34'0 0.0
2018-Jan-20 02:30N 37°57' E 023°34'0 0.0
2018-Jan-20 02:00N 37°57' E 023°34'0 0.1
2018-Jan-20 01:30N 37°57' E 023°35'0 0.0
2018-Jan-20 01:00N 37°57' E 023°35'2 5.0
2018-Jan-20 00:30N 37°56' E 023°37'0 0.1
2018-Jan-20 00:00N 37°56' E 023°37'0 0.0
2018-Jan-19 23:30N 37°56' E 023°37'0 0.0
2018-Jan-19 23:00N 37°56' E 023°37'0 0.0
2018-Jan-19 22:30N 37°56' E 023°37'0 0.0
2018-Jan-19 22:00N 37°56' E 023°37'0 0.3
2018-Jan-19 21:30N 37°56' E 023°37'1 2.2
2018-Jan-19 21:00N 37°57' E 023°36'2 3.0
2018-Jan-19 20:30N 37°57' E 023°34'0 0.0
2018-Jan-19 20:00N 37°57' E 023°34'0 0.1
2018-Jan-19 19:30N 37°57' E 023°34'0 0.0
2018-Jan-19 19:00N 37°57' E 023°34'0 0.0
2018-Jan-19 18:30N 37°57' E 023°34'0 0.0
2018-Jan-19 18:00N 37°57' E 023°34'0 0.0
2018-Jan-19 17:30N 37°57' E 023°34'0 0.0
2018-Jan-19 17:00N 37°57' E 023°34'0 0.0
2018-Jan-19 16:31N 37°57' E 023°34'0 0.1
2018-Jan-19 16:00N 37°57' E 023°34'0 0.0
2018-Jan-19 15:30N 37°57' E 023°34'2 3.5
2018-Jan-19 15:00N 37°57' E 023°36'2 3.4
2018-Jan-19 14:30N 37°57' E 023°38'0 0.0
2018-Jan-19 14:00N 37°57' E 023°38'0 0.0
2018-Jan-19 13:29N 37°57' E 023°38'1 2.8
2018-Jan-19 13:00N 37°56' E 023°37'1 2.9
2018-Jan-19 12:30N 37°57' E 023°35'3 5.7
2018-Jan-19 12:00N 37°59' E 023°33'3 5.3
2018-Jan-19 11:30N 38°02' E 023°32'1 1.2
2018-Jan-19 11:00N 38°02' E 023°32'0 0.0
2018-Jan-19 10:30N 38°02' E 023°32'0 0.0
2018-Jan-19 10:00N 38°02' E 023°32'0 0.0
2018-Jan-19 09:30N 38°02' E 023°32'0 0.0
2018-Jan-19 09:00N 38°02' E 023°32'0 0.0
2018-Jan-19 08:30N 38°02' E 023°32'0 0.0
2018-Jan-19 08:00N 38°02' E 023°32'0 0.0
2018-Jan-19 07:30N 38°02' E 023°32'0 0.0
2018-Jan-19 07:00N 38°02' E 023°32'0 0.0
2018-Jan-19 06:30N 38°02' E 023°32'0 0.0
2018-Jan-19 06:00N 38°02' E 023°32'0 0.0
2018-Jan-19 05:30N 38°02' E 023°32'0 0.0
2018-Jan-19 05:00N 38°02' E 023°32'0 0.0
2018-Jan-19 04:30N 38°02' E 023°32'0 0.0
2018-Jan-19 04:00N 38°02' E 023°32'0 0.0
2018-Jan-19 03:30N 38°02' E 023°32'0 0.0
2018-Jan-19 03:00N 38°02' E 023°32'0 0.0
2018-Jan-19 02:30N 38°02' E 023°32'0 0.0
2018-Jan-19 02:00N 38°02' E 023°32'0 0.0
2018-Jan-19 01:31N 38°02' E 023°32'0 0.0
2018-Jan-19 01:00N 38°02' E 023°32'0 0.0
2018-Jan-19 00:30N 38°02' E 023°32'0 0.0
2018-Jan-19 00:00N 38°02' E 023°32'0 0.0
2018-Jan-18 23:30N 38°02' E 023°32'0 0.0
2018-Jan-18 23:00N 38°02' E 023°32'0 0.0
2018-Jan-18 22:31N 38°02' E 023°32'0 0.0
2018-Jan-18 22:00N 38°02' E 023°32'0 0.0
2018-Jan-18 21:30N 38°02' E 023°32'0 0.0
2018-Jan-18 21:00N 38°02' E 023°32'0 0.0
2018-Jan-18 20:30N 38°02' E 023°32'0 0.7
2018-Jan-18 20:00N 38°02' E 023°32'1 1.5
2018-Jan-18 19:30N 38°02' E 023°31'0 0.0
2018-Jan-18 19:00N 38°02' E 023°31'0 0.0
2018-Jan-18 18:30N 38°02' E 023°31'0 0.0
2018-Jan-18 18:00N 38°02' E 023°31'0 0.0
2018-Jan-18 17:30N 38°02' E 023°31'0 0.0
2018-Jan-18 17:00N 38°02' E 023°31'0 0.0
2018-Jan-18 16:30N 38°02' E 023°31'0 0.0
2018-Jan-18 16:00N 38°02' E 023°31'0 0.0
2018-Jan-18 15:30N 38°02' E 023°31'1 1.9
2018-Jan-18 15:00N 38°02' E 023°32'0 0.1
2018-Jan-18 14:30N 38°02' E 023°32'0 0.0
2018-Jan-18 14:01N 38°02' E 023°32'0 0.0
2018-Jan-18 13:31N 38°02' E 023°32'0 0.9
2018-Jan-18 13:00N 38°02' E 023°31'2 3.2
2018-Jan-18 12:30N 38°00' E 023°32'3 6.2
2018-Jan-18 12:00N 37°57' E 023°33'3 6.8
2018-Jan-18 11:31N 37°56' E 023°37'0 0.3
2018-Jan-18 11:00N 37°56' E 023°37'0 0.0
2018-Jan-18 10:30N 37°56' E 023°37'0 0.0
2018-Jan-18 10:00N 37°56' E 023°37'0 0.0
2018-Jan-18 09:30N 37°56' E 023°37'0 0.0
2018-Jan-18 09:01N 37°56' E 023°37'2 4.8
2018-Jan-18 08:30N 37°57' E 023°34'3 6.5
2018-Jan-18 08:00N 38°00' E 023°33'2 4.5
2018-Jan-18 07:30N 38°02' E 023°32'0 0.0
2018-Jan-18 07:00N 38°02' E 023°32'0 0.0
2018-Jan-18 06:28N 38°02' E 023°32'0 0.0
2018-Jan-18 06:00N 38°02' E 023°32'0 0.0
2018-Jan-18 05:30N 38°02' E 023°32'0 0.0
2018-Jan-18 05:00N 38°02' E 023°32'0 0.0
2018-Jan-18 04:30N 38°02' E 023°32'0 0.0
2018-Jan-18 04:00N 38°02' E 023°32'0 0.0
2018-Jan-18 03:30N 38°02' E 023°32'0 0.0
2018-Jan-18 03:00N 38°02' E 023°32'0 0.0
2018-Jan-18 02:30N 38°02' E 023°32'0 0.0
2018-Jan-18 02:00N 38°02' E 023°32'0 0.0
2018-Jan-18 01:30N 38°02' E 023°32'0 0.0
2018-Jan-18 01:00N 38°02' E 023°32'0 0.0
2018-Jan-18 00:00N 38°02' E 023°32'0 0.0
2018-Jan-17 23:57N 38°02' E 023°32'  

Dump ship's entire track history